Main page
METAR-TAF:

METAR-TAF

Airports :

RAF Topcliffe

Topcliffe, England

latitude: 54-12N, longitude: 001-23W, elevation: 28 m

Current weather observation

The report was made 59 minutes ago, at 04:50 UTC
Wind 5 kt from the West/Northwest
Temperature 14°C
Humidity 94%
Pressure 1012 hPa
Visibility 10 km or more

METAR: EGXZ 170450Z AUTO 29005KT 9999 BKN025/// BKN047/// 14/13 Q1012 RERA

Time: 06:49 (05:49 UTC)

Forecast

The report was made 16 hours and 6 minutes ago, at 13:43 UTC
Forecast valid from 16 at 15 UTC to 16 at 18 UTC
Wind 8 kt from the West/Northwest
Visibility 10 km or more
Few clouds at a height of 4500 ft
Temporary
from 16 at 15 UTC to 16 at 18 UTC
Visibility: 6000 m
Scattered clouds at a height of 2200 ft, Towering cumulus.
rain showers
Probability 30% :
Temporary
from 16 at 16 UTC to 16 at 18 UTC
Visibility: 3000 m
Broken clouds at a height of 1400 ft, Cumulonimbus.
heavy rain showers

TAF: EGXZ 161343Z 1615/1618 29008KT 9999 FEW045 TEMPO 1615/1618 6000 SHRA SCT022TCU PROB30 TEMPO 1616/1618 3000 +SHRA BKN014CB

Weather observations and forecasts of more than 4000 airports (METAR and TAF reports).

The available stations are represented by yellow and red dots on the map.

Hover mouse over dot to see the name of the station.

Then click to see weather observations and forecasts.

To change the map : click on the green buttons with a black cross to zoom in, on the green button with a dash to zoom out, or on the green arrows for adjacent maps.


METAR-TAF: